sensor_id;sensor_type;location;lat;lon;timestamp;P1;durP1;ratioP1;P2;durP2;ratioP2
77888;SDS011;67082;41.704;44.768;2024-03-08T00:00:14;2.95;;;1.42;;
77888;SDS011;67082;41.704;44.768;2024-03-08T00:03:07;2.35;;;1.30;;
77888;SDS011;67082;41.704;44.768;2024-03-08T00:05:38;2.15;;;1.30;;
77888;SDS011;67082;41.704;44.768;2024-03-08T00:08:06;2.58;;;1.45;;
77888;SDS011;67082;41.704;44.768;2024-03-08T00:10:38;3.55;;;1.55;;
77888;SDS011;67082;41.704;44.768;2024-03-08T00:13:07;3.25;;;1.50;;
77888;SDS011;67082;41.704;44.768;2024-03-08T00:15:35;2.17;;;1.30;;
77888;SDS011;67082;41.704;44.768;2024-03-08T00:18:04;2.83;;;1.42;;
77888;SDS011;67082;41.704;44.768;2024-03-08T00:20:32;2.65;;;1.67;;
77888;SDS011;67082;41.704;44.768;2024-03-08T00:23:01;2.47;;;1.50;;
77888;SDS011;67082;41.704;44.768;2024-03-08T00:25:29;2.70;;;1.52;;
77888;SDS011;67082;41.704;44.768;2024-03-08T00:27:57;3.00;;;1.55;;
77888;SDS011;67082;41.704;44.768;2024-03-08T00:30:27;2.83;;;1.70;;
77888;SDS011;67082;41.704;44.768;2024-03-08T00:32:55;2.35;;;1.45;;
77888;SDS011;67082;41.704;44.768;2024-03-08T00:35:24;3.88;;;1.50;;
77888;SDS011;67082;41.704;44.768;2024-03-08T00:37:52;3.20;;;1.70;;
77888;SDS011;67082;41.704;44.768;2024-03-08T00:40:24;3.45;;;1.70;;
77888;SDS011;67082;41.704;44.768;2024-03-08T00:42:52;3.30;;;1.65;;
77888;SDS011;67082;41.704;44.768;2024-03-08T00:45:21;3.10;;;1.85;;
77888;SDS011;67082;41.704;44.768;2024-03-08T00:47:51;2.90;;;1.80;;
77888;SDS011;67082;41.704;44.768;2024-03-08T00:50:19;3.40;;;1.85;;
77888;SDS011;67082;41.704;44.768;2024-03-08T00:52:47;3.28;;;1.60;;
77888;SDS011;67082;41.704;44.768;2024-03-08T00:55:16;3.63;;;1.98;;
77888;SDS011;67082;41.704;44.768;2024-03-08T00:57:44;3.40;;;1.90;;
77888;SDS011;67082;41.704;44.768;2024-03-08T01:00:13;3.00;;;1.80;;
77888;SDS011;67082;41.704;44.768;2024-03-08T01:02:41;3.03;;;1.80;;
77888;SDS011;67082;41.704;44.768;2024-03-08T01:05:10;2.75;;;1.77;;
77888;SDS011;67082;41.704;44.768;2024-03-08T01:07:38;3.65;;;2.00;;
77888;SDS011;67082;41.704;44.768;2024-03-08T01:10:06;3.97;;;1.80;;
77888;SDS011;67082;41.704;44.768;2024-03-08T01:12:37;4.53;;;1.98;;
77888;SDS011;67082;41.704;44.768;2024-03-08T01:15:08;3.78;;;2.35;;
77888;SDS011;67082;41.704;44.768;2024-03-08T01:17:38;3.55;;;1.80;;
77888;SDS011;67082;41.704;44.768;2024-03-08T01:20:07;3.55;;;2.05;;
77888;SDS011;67082;41.704;44.768;2024-03-08T01:22:39;3.30;;;1.80;;
77888;SDS011;67082;41.704;44.768;2024-03-08T01:25:08;3.30;;;2.05;;
77888;SDS011;67082;41.704;44.768;2024-03-08T01:27:37;4.07;;;2.03;;
77888;SDS011;67082;41.704;44.768;2024-03-08T01:30:05;4.57;;;2.05;;
77888;SDS011;67082;41.704;44.768;2024-03-08T01:32:34;3.67;;;2.20;;
77888;SDS011;67082;41.704;44.768;2024-03-08T01:35:02;3.53;;;2.10;;
77888;SDS011;67082;41.704;44.768;2024-03-08T01:37:31;3.50;;;1.90;;
77888;SDS011;67082;41.704;44.768;2024-03-08T01:39:59;4.28;;;1.92;;
77888;SDS011;67082;41.704;44.768;2024-03-08T01:42:29;4.97;;;2.20;;
77888;SDS011;67082;41.704;44.768;2024-03-08T01:44:57;3.15;;;1.95;;
77888;SDS011;67082;41.704;44.768;2024-03-08T01:47:26;4.53;;;2.40;;
77888;SDS011;67082;41.704;44.768;2024-03-08T01:49:54;4.05;;;2.00;;
77888;SDS011;67082;41.704;44.768;2024-03-08T01:52:23;4.10;;;1.83;;
77888;SDS011;67082;41.704;44.768;2024-03-08T01:54:53;4.18;;;2.20;;
77888;SDS011;67082;41.704;44.768;2024-03-08T01:57:21;4.00;;;2.30;;
77888;SDS011;67082;41.704;44.768;2024-03-08T01:59:49;3.55;;;1.98;;
77888;SDS011;67082;41.704;44.768;2024-03-08T02:02:18;6.43;;;2.17;;
77888;SDS011;67082;41.704;44.768;2024-03-08T02:04:48;4.07;;;2.08;;
77888;SDS011;67082;41.704;44.768;2024-03-08T02:07:16;3.22;;;1.77;;
77888;SDS011;67082;41.704;44.768;2024-03-08T02:09:44;2.92;;;1.73;;
77888;SDS011;67082;41.704;44.768;2024-03-08T02:12:12;3.20;;;1.80;;
77888;SDS011;67082;41.704;44.768;2024-03-08T02:14:42;3.40;;;2.00;;
77888;SDS011;67082;41.704;44.768;2024-03-08T02:17:11;3.45;;;1.77;;
77888;SDS011;67082;41.704;44.768;2024-03-08T02:19:40;3.42;;;1.88;;
77888;SDS011;67082;41.704;44.768;2024-03-08T02:22:09;3.90;;;1.75;;
77888;SDS011;67082;41.704;44.768;2024-03-08T02:24:37;2.47;;;1.50;;
77888;SDS011;67082;41.704;44.768;2024-03-08T02:27:05;2.75;;;1.67;;
77888;SDS011;67082;41.704;44.768;2024-03-08T02:29:34;3.00;;;1.60;;
77888;SDS011;67082;41.704;44.768;2024-03-08T02:32:04;3.53;;;2.00;;
77888;SDS011;67082;41.704;44.768;2024-03-08T02:34:32;2.83;;;1.55;;
77888;SDS011;67082;41.704;44.768;2024-03-08T02:37:01;3.17;;;1.85;;
77888;SDS011;67082;41.704;44.768;2024-03-08T02:39:29;3.47;;;1.65;;
77888;SDS011;67082;41.704;44.768;2024-03-08T02:41:57;3.85;;;1.73;;
77888;SDS011;67082;41.704;44.768;2024-03-08T02:44:26;2.78;;;1.50;;
77888;SDS011;67082;41.704;44.768;2024-03-08T02:46:53;2.95;;;1.60;;
77888;SDS011;67082;41.704;44.768;2024-03-08T02:49:22;2.40;;;1.38;;
77888;SDS011;67082;41.704;44.768;2024-03-08T02:51:50;2.50;;;1.50;;
77888;SDS011;67082;41.704;44.768;2024-03-08T02:54:19;2.90;;;1.40;;
77888;SDS011;67082;41.704;44.768;2024-03-08T02:56:48;2.22;;;1.30;;
77888;SDS011;67082;41.704;44.768;2024-03-08T02:59:19;2.42;;;1.60;;
77888;SDS011;67082;41.704;44.768;2024-03-08T03:01:46;3.03;;;1.20;;
77888;SDS011;67082;41.704;44.768;2024-03-08T03:04:17;2.38;;;1.40;;
77888;SDS011;67082;41.704;44.768;2024-03-08T03:06:45;3.03;;;1.70;;
77888;SDS011;67082;41.704;44.768;2024-03-08T03:09:13;2.35;;;1.38;;
77888;SDS011;67082;41.704;44.768;2024-03-08T03:11:44;3.25;;;1.40;;
77888;SDS011;67082;41.704;44.768;2024-03-08T03:14:12;2.70;;;1.50;;
77888;SDS011;67082;41.704;44.768;2024-03-08T03:16:41;2.97;;;1.52;;
77888;SDS011;67082;41.704;44.768;2024-03-08T03:19:11;2.58;;;1.33;;
77888;SDS011;67082;41.704;44.768;2024-03-08T03:21:39;2.55;;;1.50;;
77888;SDS011;67082;41.704;44.768;2024-03-08T03:24:08;3.13;;;1.50;;
77888;SDS011;67082;41.704;44.768;2024-03-08T03:26:39;2.88;;;1.38;;
77888;SDS011;67082;41.704;44.768;2024-03-08T03:29:09;3.67;;;1.42;;
77888;SDS011;67082;41.704;44.768;2024-03-08T03:31:39;2.97;;;1.33;;
77888;SDS011;67082;41.704;44.768;2024-03-08T03:34:08;2.33;;;1.35;;
77888;SDS011;67082;41.704;44.768;2024-03-08T03:36:36;2.60;;;1.50;;
77888;SDS011;67082;41.704;44.768;2024-03-08T03:39:06;2.58;;;1.27;;
77888;SDS011;67082;41.704;44.768;2024-03-08T03:41:54;3.10;;;1.65;;
77888;SDS011;67082;41.704;44.768;2024-03-08T03:44:22;2.97;;;1.50;;
77888;SDS011;67082;41.704;44.768;2024-03-08T03:46:51;3.05;;;1.60;;
77888;SDS011;67082;41.704;44.768;2024-03-08T03:49:19;2.85;;;1.40;;
77888;SDS011;67082;41.704;44.768;2024-03-08T03:51:47;2.63;;;1.42;;
77888;SDS011;67082;41.704;44.768;2024-03-08T03:54:16;2.33;;;1.45;;
77888;SDS011;67082;41.704;44.768;2024-03-08T03:56:44;2.75;;;1.40;;
77888;SDS011;67082;41.704;44.768;2024-03-08T03:59:15;3.08;;;1.30;;
77888;SDS011;67082;41.704;44.768;2024-03-08T04:01:43;2.95;;;1.50;;
77888;SDS011;67082;41.704;44.768;2024-03-08T04:04:11;3.10;;;1.58;;
77888;SDS011;67082;41.704;44.768;2024-03-08T04:06:39;2.58;;;1.60;;
77888;SDS011;67082;41.704;44.768;2024-03-08T04:09:08;3.03;;;1.50;;
77888;SDS011;67082;41.704;44.768;2024-03-08T04:11:37;4.63;;;1.67;;
77888;SDS011;67082;41.704;44.768;2024-03-08T04:14:05;2.85;;;1.60;;
77888;SDS011;67082;41.704;44.768;2024-03-08T04:16:33;1.92;;;1.20;;
77888;SDS011;67082;41.704;44.768;2024-03-08T04:19:01;3.13;;;1.67;;
77888;SDS011;67082;41.704;44.768;2024-03-08T04:21:32;2.83;;;1.50;;
77888;SDS011;67082;41.704;44.768;2024-03-08T04:24:00;3.97;;;1.00;;
77888;SDS011;67082;41.704;44.768;2024-03-08T04:26:28;2.60;;;1.50;;
77888;SDS011;67082;41.704;44.768;2024-03-08T04:28:57;2.63;;;1.20;;
77888;SDS011;67082;41.704;44.768;2024-03-08T04:31:25;3.03;;;1.25;;
77888;SDS011;67082;41.704;44.768;2024-03-08T04:33:54;3.85;;;1.10;;
77888;SDS011;67082;41.704;44.768;2024-03-08T04:36:23;4.35;;;1.40;;
77888;SDS011;67082;41.704;44.768;2024-03-08T04:38:53;2.08;;;1.38;;
77888;SDS011;67082;41.704;44.768;2024-03-08T04:41:22;2.25;;;1.10;;
77888;SDS011;67082;41.704;44.768;2024-03-08T04:43:51;2.00;;;1.20;;
77888;SDS011;67082;41.704;44.768;2024-03-08T04:46:19;1.70;;;1.00;;
77888;SDS011;67082;41.704;44.768;2024-03-08T04:48:47;2.55;;;1.00;;
77888;SDS011;67082;41.704;44.768;2024-03-08T04:51:16;2.33;;;1.05;;
77888;SDS011;67082;41.704;44.768;2024-03-08T04:53:45;2.83;;;1.20;;
77888;SDS011;67082;41.704;44.768;2024-03-08T04:56:13;2.13;;;1.20;;
77888;SDS011;67082;41.704;44.768;2024-03-08T04:58:41;2.00;;;1.00;;
77888;SDS011;67082;41.704;44.768;2024-03-08T05:01:10;2.25;;;1.10;;
77888;SDS011;67082;41.704;44.768;2024-03-08T05:03:39;2.60;;;1.15;;
77888;SDS011;67082;41.704;44.768;2024-03-08T05:06:07;1.90;;;1.00;;
77888;SDS011;67082;41.704;44.768;2024-03-08T05:08:36;1.80;;;0.95;;
77888;SDS011;67082;41.704;44.768;2024-03-08T05:11:04;2.17;;;1.30;;
77888;SDS011;67082;41.704;44.768;2024-03-08T05:13:35;2.10;;;1.00;;
77888;SDS011;67082;41.704;44.768;2024-03-08T05:16:03;2.00;;;1.10;;
77888;SDS011;67082;41.704;44.768;2024-03-08T05:18:31;1.73;;;0.98;;
77888;SDS011;67082;41.704;44.768;2024-03-08T05:21:00;1.90;;;1.13;;
77888;SDS011;67082;41.704;44.768;2024-03-08T05:23:28;3.55;;;1.02;;
77888;SDS011;67082;41.704;44.768;2024-03-08T05:25:56;3.80;;;1.00;;
77888;SDS011;67082;41.704;44.768;2024-03-08T05:28:25;1.85;;;1.00;;
77888;SDS011;67082;41.704;44.768;2024-03-08T05:30:53;5.00;;;1.08;;
77888;SDS011;67082;41.704;44.768;2024-03-08T05:33:24;1.73;;;0.90;;
77888;SDS011;67082;41.704;44.768;2024-03-08T05:35:52;2.50;;;1.05;;
77888;SDS011;67082;41.704;44.768;2024-03-08T05:38:21;2.70;;;1.00;;
77888;SDS011;67082;41.704;44.768;2024-03-08T05:40:49;1.85;;;1.10;;
77888;SDS011;67082;41.704;44.768;2024-03-08T05:43:20;2.40;;;1.10;;
77888;SDS011;67082;41.704;44.768;2024-03-08T05:45:48;4.90;;;1.40;;
77888;SDS011;67082;41.704;44.768;2024-03-08T05:48:17;1.75;;;1.02;;
77888;SDS011;67082;41.704;44.768;2024-03-08T05:50:46;4.30;;;1.05;;
77888;SDS011;67082;41.704;44.768;2024-03-08T05:53:14;2.20;;;0.90;;
77888;SDS011;67082;41.704;44.768;2024-03-08T05:55:42;2.40;;;1.00;;
77888;SDS011;67082;41.704;44.768;2024-03-08T05:58:10;3.67;;;1.00;;
77888;SDS011;67082;41.704;44.768;2024-03-08T06:00:39;3.58;;;1.10;;
77888;SDS011;67082;41.704;44.768;2024-03-08T06:03:07;1.73;;;0.93;;
77888;SDS011;67082;41.704;44.768;2024-03-08T06:05:35;3.22;;;1.10;;
77888;SDS011;67082;41.704;44.768;2024-03-08T06:08:05;1.90;;;1.02;;
77888;SDS011;67082;41.704;44.768;2024-03-08T06:10:36;2.50;;;1.17;;
77888;SDS011;67082;41.704;44.768;2024-03-08T06:13:07;1.88;;;0.93;;
77888;SDS011;67082;41.704;44.768;2024-03-08T06:15:35;1.65;;;0.90;;
77888;SDS011;67082;41.704;44.768;2024-03-08T06:18:04;4.18;;;1.00;;
77888;SDS011;67082;41.704;44.768;2024-03-08T06:20:33;3.97;;;1.30;;
77888;SDS011;67082;41.704;44.768;2024-03-08T06:23:02;1.23;;;0.85;;
77888;SDS011;67082;41.704;44.768;2024-03-08T06:25:32;2.00;;;0.95;;
77888;SDS011;67082;41.704;44.768;2024-03-08T06:28:02;2.95;;;0.80;;
77888;SDS011;67082;41.704;44.768;2024-03-08T06:30:32;2.13;;;0.88;;
77888;SDS011;67082;41.704;44.768;2024-03-08T06:33:02;1.90;;;0.95;;
77888;SDS011;67082;41.704;44.768;2024-03-08T06:35:31;1.60;;;0.80;;
77888;SDS011;67082;41.704;44.768;2024-03-08T06:38:05;1.98;;;0.77;;
77888;SDS011;67082;41.704;44.768;2024-03-08T06:40:33;2.08;;;0.90;;
77888;SDS011;67082;41.704;44.768;2024-03-08T06:43:02;2.63;;;0.80;;
77888;SDS011;67082;41.704;44.768;2024-03-08T06:45:33;2.90;;;1.20;;
77888;SDS011;67082;41.704;44.768;2024-03-08T06:48:01;3.40;;;0.90;;
77888;SDS011;67082;41.704;44.768;2024-03-08T06:50:30;1.35;;;0.80;;
77888;SDS011;67082;41.704;44.768;2024-03-08T06:52:59;1.90;;;1.00;;
77888;SDS011;67082;41.704;44.768;2024-03-08T06:55:27;1.80;;;0.80;;
77888;SDS011;67082;41.704;44.768;2024-03-08T06:57:56;1.45;;;0.68;;
77888;SDS011;67082;41.704;44.768;2024-03-08T07:00:25;2.47;;;1.25;;
77888;SDS011;67082;41.704;44.768;2024-03-08T07:02:56;1.85;;;0.90;;
77888;SDS011;67082;41.704;44.768;2024-03-08T07:05:34;2.03;;;0.80;;
77888;SDS011;67082;41.704;44.768;2024-03-08T07:08:02;1.48;;;0.80;;
77888;SDS011;67082;41.704;44.768;2024-03-08T07:10:31;5.25;;;0.85;;
77888;SDS011;67082;41.704;44.768;2024-03-08T07:13:01;1.58;;;0.70;;
77888;SDS011;67082;41.704;44.768;2024-03-08T07:15:32;1.63;;;0.80;;
77888;SDS011;67082;41.704;44.768;2024-03-08T07:18:00;2.00;;;0.80;;
77888;SDS011;67082;41.704;44.768;2024-03-08T07:20:31;3.33;;;1.00;;
77888;SDS011;67082;41.704;44.768;2024-03-08T07:22:59;1.27;;;0.70;;
77888;SDS011;67082;41.704;44.768;2024-03-08T07:25:27;3.13;;;1.20;;
77888;SDS011;67082;41.704;44.768;2024-03-08T07:27:57;5.22;;;1.00;;
77888;SDS011;67082;41.704;44.768;2024-03-08T07:30:25;2.35;;;0.88;;
77888;SDS011;67082;41.704;44.768;2024-03-08T07:33:13;7.72;;;1.02;;
77888;SDS011;67082;41.704;44.768;2024-03-08T07:35:42;3.38;;;0.80;;
77888;SDS011;67082;41.704;44.768;2024-03-08T07:38:12;2.95;;;1.00;;
77888;SDS011;67082;41.704;44.768;2024-03-08T07:40:40;2.45;;;0.95;;
77888;SDS011;67082;41.704;44.768;2024-03-08T07:43:12;3.35;;;1.00;;
77888;SDS011;67082;41.704;44.768;2024-03-08T07:45:40;2.05;;;0.80;;
77888;SDS011;67082;41.704;44.768;2024-03-08T07:48:09;3.45;;;0.70;;
77888;SDS011;67082;41.704;44.768;2024-03-08T07:50:41;1.83;;;0.70;;
77888;SDS011;67082;41.704;44.768;2024-03-08T07:53:09;1.90;;;0.70;;
77888;SDS011;67082;41.704;44.768;2024-03-08T07:55:37;1.58;;;0.50;;
77888;SDS011;67082;41.704;44.768;2024-03-08T07:58:07;4.03;;;0.60;;
77888;SDS011;67082;41.704;44.768;2024-03-08T08:00:38;1.42;;;0.80;;
77888;SDS011;67082;41.704;44.768;2024-03-08T08:03:07;2.50;;;0.85;;
77888;SDS011;67082;41.704;44.768;2024-03-08T08:05:37;1.83;;;0.90;;
77888;SDS011;67082;41.704;44.768;2024-03-08T08:08:07;2.10;;;0.98;;
77888;SDS011;67082;41.704;44.768;2024-03-08T08:10:39;3.00;;;0.70;;
77888;SDS011;67082;41.704;44.768;2024-03-08T08:13:07;5.47;;;0.77;;
77888;SDS011;67082;41.704;44.768;2024-03-08T08:15:35;1.40;;;0.60;;
77888;SDS011;67082;41.704;44.768;2024-03-08T08:18:03;2.67;;;0.88;;
77888;SDS011;67082;41.704;44.768;2024-03-08T08:20:35;1.40;;;0.70;;
77888;SDS011;67082;41.704;44.768;2024-03-08T08:23:03;2.85;;;0.60;;
77888;SDS011;67082;41.704;44.768;2024-03-08T08:25:32;2.08;;;0.60;;
77888;SDS011;67082;41.704;44.768;2024-03-08T08:28:02;1.55;;;0.63;;
77888;SDS011;67082;41.704;44.768;2024-03-08T08:30:32;1.42;;;0.90;;
77888;SDS011;67082;41.704;44.768;2024-03-08T08:33:01;1.25;;;0.63;;
77888;SDS011;67082;41.704;44.768;2024-03-08T08:35:29;1.33;;;0.70;;
77888;SDS011;67082;41.704;44.768;2024-03-08T08:37:58;1.75;;;0.95;;
77888;SDS011;67082;41.704;44.768;2024-03-08T08:40:26;5.43;;;0.60;;
77888;SDS011;67082;41.704;44.768;2024-03-08T08:42:56;4.28;;;0.73;;
77888;SDS011;67082;41.704;44.768;2024-03-08T08:45:25;1.25;;;0.60;;
77888;SDS011;67082;41.704;44.768;2024-03-08T08:47:54;3.40;;;0.75;;
77888;SDS011;67082;41.704;44.768;2024-03-08T08:50:23;2.95;;;0.77;;
77888;SDS011;67082;41.704;44.768;2024-03-08T08:52:52;2.97;;;0.80;;
77888;SDS011;67082;41.704;44.768;2024-03-08T08:55:21;2.75;;;0.60;;
77888;SDS011;67082;41.704;44.768;2024-03-08T08:57:55;3.28;;;0.55;;
77888;SDS011;67082;41.704;44.768;2024-03-08T09:00:24;4.53;;;0.50;;
77888;SDS011;67082;41.704;44.768;2024-03-08T09:02:55;2.25;;;0.70;;
77888;SDS011;67082;41.704;44.768;2024-03-08T09:05:26;2.60;;;0.70;;
77888;SDS011;67082;41.704;44.768;2024-03-08T09:07:54;1.90;;;0.70;;
77888;SDS011;67082;41.704;44.768;2024-03-08T09:10:23;3.67;;;0.80;;
77888;SDS011;67082;41.704;44.768;2024-03-08T09:12:57;2.42;;;1.00;;
77888;SDS011;67082;41.704;44.768;2024-03-08T09:15:27;7.82;;;1.10;;
77888;SDS011;67082;41.704;44.768;2024-03-08T09:17:56;2.50;;;0.70;;
77888;SDS011;67082;41.704;44.768;2024-03-08T09:20:25;5.45;;;0.90;;
77888;SDS011;67082;41.704;44.768;2024-03-08T09:22:53;3.83;;;0.80;;
77888;SDS011;67082;41.704;44.768;2024-03-08T09:27:58;2.53;;;0.60;;
77888;SDS011;67082;41.704;44.768;2024-03-08T09:30:26;3.88;;;0.85;;
77888;SDS011;67082;41.704;44.768;2024-03-08T09:32:54;4.00;;;0.70;;
77888;SDS011;67082;41.704;44.768;2024-03-08T09:35:26;2.58;;;0.68;;
77888;SDS011;67082;41.704;44.768;2024-03-08T09:37:54;1.35;;;0.75;;
77888;SDS011;67082;41.704;44.768;2024-03-08T09:40:23;1.15;;;0.70;;
77888;SDS011;67082;41.704;44.768;2024-03-08T09:42:53;1.98;;;0.80;;
77888;SDS011;67082;41.704;44.768;2024-03-08T09:45:23;1.33;;;0.75;;
77888;SDS011;67082;41.704;44.768;2024-03-08T09:47:54;1.85;;;0.80;;
77888;SDS011;67082;41.704;44.768;2024-03-08T09:50:22;1.20;;;0.57;;
77888;SDS011;67082;41.704;44.768;2024-03-08T09:52:51;2.60;;;0.98;;
77888;SDS011;67082;41.704;44.768;2024-03-08T09:55:19;4.20;;;1.00;;
77888;SDS011;67082;41.704;44.768;2024-03-08T09:57:51;1.40;;;0.80;;
77888;SDS011;67082;41.704;44.768;2024-03-08T10:00:42;1.63;;;0.85;;
77888;SDS011;67082;41.704;44.768;2024-03-08T10:03:11;2.20;;;0.98;;
77888;SDS011;67082;41.704;44.768;2024-03-08T10:05:43;4.18;;;1.10;;
77888;SDS011;67082;41.704;44.768;2024-03-08T10:08:12;4.63;;;1.20;;
77888;SDS011;67082;41.704;44.768;2024-03-08T10:10:42;3.58;;;1.13;;
77888;SDS011;67082;41.704;44.768;2024-03-08T10:13:11;3.75;;;1.17;;
77888;SDS011;67082;41.704;44.768;2024-03-08T10:15:41;3.67;;;1.20;;
77888;SDS011;67082;41.704;44.768;2024-03-08T10:18:13;4.32;;;1.20;;
77888;SDS011;67082;41.704;44.768;2024-03-08T10:20:42;2.92;;;1.17;;
77888;SDS011;67082;41.704;44.768;2024-03-08T10:23:10;6.18;;;1.50;;
77888;SDS011;67082;41.704;44.768;2024-03-08T10:25:39;7.38;;;1.30;;
77888;SDS011;67082;41.704;44.768;2024-03-08T10:28:07;2.75;;;1.50;;
77888;SDS011;67082;41.704;44.768;2024-03-08T10:30:35;15.43;;;4.55;;
77888;SDS011;67082;41.704;44.768;2024-03-08T10:33:03;7.28;;;1.98;;
77888;SDS011;67082;41.704;44.768;2024-03-08T10:35:33;4.35;;;1.67;;
77888;SDS011;67082;41.704;44.768;2024-03-08T10:38:01;4.93;;;2.10;;
77888;SDS011;67082;41.704;44.768;2024-03-08T10:40:34;7.07;;;2.00;;
77888;SDS011;67082;41.704;44.768;2024-03-08T10:43:09;4.10;;;1.85;;
77888;SDS011;67082;41.704;44.768;2024-03-08T10:45:47;3.03;;;1.70;;
77888;SDS011;67082;41.704;44.768;2024-03-08T10:48:26;2.85;;;1.67;;
77888;SDS011;67082;41.704;44.768;2024-03-08T10:51:05;4.10;;;2.08;;
77888;SDS011;67082;41.704;44.768;2024-03-08T10:53:35;6.97;;;2.17;;
77888;SDS011;67082;41.704;44.768;2024-03-08T10:56:05;3.05;;;1.85;;
77888;SDS011;67082;41.704;44.768;2024-03-08T10:58:36;4.10;;;1.88;;
77888;SDS011;67082;41.704;44.768;2024-03-08T11:01:06;2.40;;;1.55;;
77888;SDS011;67082;41.704;44.768;2024-03-08T11:06:13;4.45;;;1.70;;
77888;SDS011;67082;41.704;44.768;2024-03-08T11:08:44;5.15;;;2.47;;
77888;SDS011;67082;41.704;44.768;2024-03-08T11:14:03;4.57;;;1.98;;
77888;SDS011;67082;41.704;44.768;2024-03-08T11:19:06;5.15;;;1.98;;
77888;SDS011;67082;41.704;44.768;2024-03-08T11:21:38;5.07;;;1.88;;
77888;SDS011;67082;41.704;44.768;2024-03-08T11:24:07;4.68;;;1.80;;
77888;SDS011;67082;41.704;44.768;2024-03-08T11:26:40;4.75;;;1.70;;
77888;SDS011;67082;41.704;44.768;2024-03-08T11:29:51;5.68;;;2.13;;
77888;SDS011;67082;41.704;44.768;2024-03-08T11:37:34;3.55;;;2.00;;
77888;SDS011;67082;41.704;44.768;2024-03-08T11:40:11;3.65;;;2.03;;
77888;SDS011;67082;41.704;44.768;2024-03-08T11:42:44;4.93;;;2.20;;
77888;SDS011;67082;41.704;44.768;2024-03-08T11:45:15;8.55;;;2.08;;
77888;SDS011;67082;41.704;44.768;2024-03-08T11:47:46;4.10;;;1.88;;
77888;SDS011;67082;41.704;44.768;2024-03-08T11:50:14;3.53;;;2.00;;
77888;SDS011;67082;41.704;44.768;2024-03-08T11:52:43;4.85;;;2.20;;
77888;SDS011;67082;41.704;44.768;2024-03-08T11:55:11;9.07;;;2.10;;
77888;SDS011;67082;41.704;44.768;2024-03-08T11:57:41;3.65;;;2.05;;
77888;SDS011;67082;41.704;44.768;2024-03-08T12:00:16;5.05;;;1.92;;
77888;SDS011;67082;41.704;44.768;2024-03-08T12:03:02;5.45;;;2.20;;
77888;SDS011;67082;41.704;44.768;2024-03-08T12:05:32;3.20;;;1.83;;
77888;SDS011;67082;41.704;44.768;2024-03-08T12:08:01;3.25;;;2.00;;
77888;SDS011;67082;41.704;44.768;2024-03-08T12:10:30;3.58;;;1.80;;
77888;SDS011;67082;41.704;44.768;2024-03-08T12:12:59;3.47;;;1.80;;
77888;SDS011;67082;41.704;44.768;2024-03-08T12:15:27;4.80;;;1.90;;
77888;SDS011;67082;41.704;44.768;2024-03-08T12:17:58;4.43;;;2.10;;
77888;SDS011;67082;41.704;44.768;2024-03-08T12:20:27;4.13;;;2.00;;
77888;SDS011;67082;41.704;44.768;2024-03-08T12:23:00;4.30;;;2.20;;
77888;SDS011;67082;41.704;44.768;2024-03-08T12:25:31;6.90;;;2.35;;
77888;SDS011;67082;41.704;44.768;2024-03-08T12:28:11;5.30;;;2.20;;
77888;SDS011;67082;41.704;44.768;2024-03-08T12:33:16;3.05;;;1.90;;
77888;SDS011;67082;41.704;44.768;2024-03-08T12:35:54;4.45;;;2.30;;
77888;SDS011;67082;41.704;44.768;2024-03-08T12:38:27;5.05;;;2.00;;
77888;SDS011;67082;41.704;44.768;2024-03-08T12:40:58;7.28;;;2.78;;
77888;SDS011;67082;41.704;44.768;2024-03-08T12:43:27;4.43;;;2.05;;
77888;SDS011;67082;41.704;44.768;2024-03-08T12:45:59;5.47;;;2.35;;
77888;SDS011;67082;41.704;44.768;2024-03-08T12:48:33;4.80;;;2.38;;
77888;SDS011;67082;41.704;44.768;2024-03-08T12:51:08;3.97;;;2.08;;
77888;SDS011;67082;41.704;44.768;2024-03-08T12:53:36;5.45;;;2.40;;
77888;SDS011;67082;41.704;44.768;2024-03-08T12:56:05;5.45;;;2.25;;
77888;SDS011;67082;41.704;44.768;2024-03-08T12:58:36;6.22;;;2.72;;
77888;SDS011;67082;41.704;44.768;2024-03-08T13:01:05;4.75;;;2.40;;
77888;SDS011;67082;41.704;44.768;2024-03-08T13:03:35;10.95;;;2.33;;
77888;SDS011;67082;41.704;44.768;2024-03-08T13:06:04;3.95;;;2.20;;
77888;SDS011;67082;41.704;44.768;2024-03-08T13:08:37;8.00;;;2.40;;
77888;SDS011;67082;41.704;44.768;2024-03-08T13:11:08;6.57;;;2.25;;
77888;SDS011;67082;41.704;44.768;2024-03-08T13:13:40;3.60;;;2.00;;
77888;SDS011;67082;41.704;44.768;2024-03-08T13:16:08;6.80;;;2.45;;
77888;SDS011;67082;41.704;44.768;2024-03-08T13:18:37;6.15;;;2.83;;
77888;SDS011;67082;41.704;44.768;2024-03-08T13:21:04;5.70;;;2.75;;
77888;SDS011;67082;41.704;44.768;2024-03-08T13:23:34;8.10;;;4.00;;
77888;SDS011;67082;41.704;44.768;2024-03-08T13:26:09;4.47;;;2.40;;
77888;SDS011;67082;41.704;44.768;2024-03-08T13:28:50;13.68;;;6.55;;
77888;SDS011;67082;41.704;44.768;2024-03-08T13:31:36;6.22;;;2.72;;
77888;SDS011;67082;41.704;44.768;2024-03-08T13:34:05;6.10;;;2.90;;
77888;SDS011;67082;41.704;44.768;2024-03-08T13:36:32;9.48;;;4.68;;
77888;SDS011;67082;41.704;44.768;2024-03-08T13:39:12;8.90;;;2.83;;
77888;SDS011;67082;41.704;44.768;2024-03-08T13:41:43;3.92;;;2.10;;
77888;SDS011;67082;41.704;44.768;2024-03-08T13:44:12;7.90;;;2.10;;
77888;SDS011;67082;41.704;44.768;2024-03-08T13:46:40;9.10;;;2.75;;
77888;SDS011;67082;41.704;44.768;2024-03-08T13:49:09;5.63;;;2.42;;
77888;SDS011;67082;41.704;44.768;2024-03-08T13:51:38;5.15;;;2.85;;
77888;SDS011;67082;41.704;44.768;2024-03-08T13:54:06;9.75;;;3.30;;
77888;SDS011;67082;41.704;44.768;2024-03-08T13:56:34;5.05;;;2.38;;
77888;SDS011;67082;41.704;44.768;2024-03-08T13:59:03;4.65;;;2.50;;
77888;SDS011;67082;41.704;44.768;2024-03-08T14:01:31;6.03;;;2.20;;
77888;SDS011;67082;41.704;44.768;2024-03-08T14:03:59;5.88;;;2.47;;
77888;SDS011;67082;41.704;44.768;2024-03-08T14:06:28;4.88;;;2.60;;
77888;SDS011;67082;41.704;44.768;2024-03-08T14:08:56;5.60;;;2.80;;
77888;SDS011;67082;41.704;44.768;2024-03-08T14:11:25;6.85;;;2.92;;
77888;SDS011;67082;41.704;44.768;2024-03-08T14:13:53;5.90;;;2.50;;
77888;SDS011;67082;41.704;44.768;2024-03-08T14:16:21;6.57;;;2.88;;
77888;SDS011;67082;41.704;44.768;2024-03-08T14:18:50;6.22;;;2.58;;
77888;SDS011;67082;41.704;44.768;2024-03-08T14:21:18;7.82;;;3.33;;
77888;SDS011;67082;41.704;44.768;2024-03-08T14:23:46;7.45;;;3.03;;
77888;SDS011;67082;41.704;44.768;2024-03-08T14:26:16;6.15;;;3.03;;
77888;SDS011;67082;41.704;44.768;2024-03-08T14:28:45;5.05;;;3.00;;
77888;SDS011;67082;41.704;44.768;2024-03-08T14:31:13;6.00;;;2.88;;
77888;SDS011;67082;41.704;44.768;2024-03-08T14:33:46;8.07;;;3.20;;
77888;SDS011;67082;41.704;44.768;2024-03-08T14:36:17;4.97;;;2.90;;
77888;SDS011;67082;41.704;44.768;2024-03-08T14:38:50;6.18;;;2.90;;
77888;SDS011;67082;41.704;44.768;2024-03-08T14:41:18;5.40;;;2.92;;
77888;SDS011;67082;41.704;44.768;2024-03-08T14:43:47;5.45;;;2.90;;
77888;SDS011;67082;41.704;44.768;2024-03-08T14:46:15;6.22;;;2.83;;
77888;SDS011;67082;41.704;44.768;2024-03-08T14:48:49;6.40;;;3.72;;
77888;SDS011;67082;41.704;44.768;2024-03-08T14:51:20;7.70;;;3.10;;
77888;SDS011;67082;41.704;44.768;2024-03-08T14:53:54;8.40;;;3.35;;
77888;SDS011;67082;41.704;44.768;2024-03-08T14:56:22;4.90;;;3.03;;
77888;SDS011;67082;41.704;44.768;2024-03-08T14:58:51;5.80;;;3.00;;
77888;SDS011;67082;41.704;44.768;2024-03-08T15:01:19;5.05;;;2.88;;
77888;SDS011;67082;41.704;44.768;2024-03-08T15:03:52;8.35;;;3.78;;
77888;SDS011;67082;41.704;44.768;2024-03-08T15:06:20;8.02;;;3.60;;